createdAt,value
2023-05-04T04:02:26.300Z,6.63
2023-05-04T04:04:53.074Z,6.75
2023-05-04T04:07:19.728Z,6.90
2023-05-04T04:09:46.432Z,7.65
2023-05-04T04:12:13.142Z,7.43
2023-05-04T04:14:39.842Z,7.03
2023-05-04T04:17:06.527Z,8.13
2023-05-04T04:19:33.228Z,6.88
2023-05-04T04:22:00.015Z,8.70
2023-05-04T04:24:26.842Z,9.07
2023-05-04T04:26:53.600Z,7.35
2023-05-04T04:29:20.330Z,8.40
2023-05-04T04:31:59.240Z,7.85
2023-05-04T04:34:26.261Z,10.20
2023-05-04T04:36:52.923Z,8.30
2023-05-04T04:39:19.828Z,8.57
2023-05-04T04:41:46.690Z,7.38
2023-05-04T04:44:13.368Z,8.00
2023-05-04T04:46:40.316Z,7.75
2023-05-04T04:49:07.416Z,7.03
2023-05-04T04:51:34.251Z,8.00
2023-05-04T04:54:00.977Z,8.20
2023-05-04T04:56:28.021Z,9.95
2023-05-04T04:58:54.705Z,8.48
2023-05-04T05:01:21.826Z,7.88
2023-05-04T05:03:50.069Z,8.23
2023-05-04T05:06:16.932Z,6.82
2023-05-04T05:08:44.317Z,8.45
2023-05-04T05:11:11.473Z,8.30
2023-05-04T05:13:38.273Z,8.32
2023-05-04T05:16:05.914Z,8.23
2023-05-04T05:18:32.950Z,6.82
2023-05-04T05:21:00.723Z,8.48
2023-05-04T05:23:27.613Z,8.30
2023-05-04T05:25:55.738Z,8.90
2023-05-04T05:28:22.986Z,6.90
2023-05-04T05:30:51.865Z,8.57
2023-05-04T05:33:19.029Z,7.05
2023-05-04T05:35:45.774Z,8.02
2023-05-04T05:38:12.750Z,7.78
2023-05-04T05:40:39.480Z,7.85
2023-05-04T05:43:06.444Z,7.90
2023-05-04T05:45:33.171Z,6.88
2023-05-04T05:47:59.909Z,7.22
2023-05-04T05:50:26.762Z,6.65
2023-05-04T05:52:53.454Z,9.75
2023-05-04T05:55:20.192Z,7.93
2023-05-04T05:57:46.851Z,7.95
2023-05-04T06:00:14.009Z,8.63
2023-05-04T06:02:40.953Z,7.47
2023-05-04T06:05:08.112Z,8.27
2023-05-04T06:07:34.786Z,6.78
2023-05-04T06:10:01.584Z,7.35
2023-05-04T06:12:28.430Z,6.97
2023-05-04T06:14:55.136Z,10.18
2023-05-04T06:17:21.880Z,7.35
2023-05-04T06:19:51.108Z,8.98
2023-05-04T06:22:18.020Z,7.13
2023-05-04T06:24:44.719Z,7.82
2023-05-04T06:27:11.886Z,6.78
2023-05-04T06:29:41.462Z,6.22
2023-05-04T06:32:10.350Z,8.68
2023-05-04T06:34:37.170Z,7.22
2023-05-04T06:37:03.893Z,8.68
2023-05-04T06:39:31.216Z,8.00
2023-05-04T06:41:58.344Z,8.13
2023-05-04T06:44:25.404Z,7.63
2023-05-04T06:46:52.415Z,7.97
2023-05-04T06:49:19.230Z,8.98
2023-05-04T06:51:45.944Z,7.78
2023-05-04T06:54:13.063Z,6.97
2023-05-04T06:56:39.842Z,7.70
2023-05-04T06:59:07.129Z,6.68
2023-05-04T07:01:33.952Z,7.30
2023-05-04T07:04:00.828Z,8.35
2023-05-04T07:06:28.546Z,5.82
2023-05-04T07:08:55.309Z,7.55
2023-05-04T07:11:22.145Z,7.40
2023-05-04T07:13:48.924Z,7.93
2023-05-04T07:16:15.640Z,7.45
2023-05-04T07:18:42.342Z,7.15
2023-05-04T07:21:26.744Z,6.38
2023-05-04T07:23:55.155Z,7.72
2023-05-04T07:26:22.476Z,7.63
2023-05-04T07:28:49.239Z,6.70
2023-05-04T07:31:16.156Z,7.60
2023-05-04T07:33:43.410Z,6.32
2023-05-04T07:36:10.419Z,7.28
2023-05-04T07:38:37.130Z,7.35
2023-05-04T07:41:03.854Z,7.88
2023-05-04T07:43:30.660Z,6.70
2023-05-04T07:45:57.440Z,8.23
2023-05-04T07:48:26.163Z,7.38
2023-05-04T07:50:53.853Z,7.88
2023-05-04T07:53:20.892Z,7.38
2023-05-04T07:55:48.525Z,6.30
2023-05-04T07:58:16.692Z,5.55
2023-05-04T08:00:43.767Z,7.88
2023-05-04T08:03:10.561Z,7.38
2023-05-04T08:05:37.595Z,6.65
2023-05-04T08:08:04.348Z,7.20
2023-05-04T08:10:31.354Z,5.90
2023-05-04T08:12:58.064Z,7.25
2023-05-04T08:15:24.868Z,6.40
2023-05-04T08:17:51.616Z,7.07
2023-05-04T08:20:18.485Z,6.47
2023-05-04T08:22:45.689Z,6.45
2023-05-04T08:25:12.584Z,7.28
2023-05-04T08:27:39.555Z,6.07
2023-05-04T08:30:07.121Z,6.20
2023-05-04T08:32:33.877Z,6.45
2023-05-04T08:35:00.689Z,6.00
2023-05-04T08:37:27.489Z,6.93
2023-05-04T08:39:54.246Z,6.95
2023-05-04T08:42:31.914Z,7.30
2023-05-04T08:44:59.504Z,5.85
2023-05-04T08:47:27.805Z,8.05
2023-05-04T08:49:56.336Z,6.50
2023-05-04T08:52:27.067Z,6.90
2023-05-04T08:54:57.623Z,7.93
2023-05-04T08:57:25.389Z,7.05
2023-05-04T08:59:54.638Z,7.43
2023-05-04T09:02:22.767Z,7.85
2023-05-04T09:04:50.985Z,7.72
2023-05-04T09:07:21.995Z,8.20
2023-05-04T09:09:50.914Z,6.78
2023-05-04T09:12:19.061Z,7.70
2023-05-04T09:14:48.582Z,7.57
2023-05-04T09:17:26.426Z,6.45
2023-05-04T09:20:01.371Z,7.32
2023-05-04T09:22:29.436Z,5.72
2023-05-04T09:25:10.444Z,6.55
2023-05-04T09:27:37.593Z,6.32
2023-05-04T09:30:05.437Z,6.13
2023-05-04T09:32:36.888Z,7.53
2023-05-04T09:35:04.631Z,6.85
2023-05-04T09:37:31.804Z,6.53
2023-05-04T09:39:59.225Z,6.72
2023-05-04T09:42:26.824Z,7.35
2023-05-04T09:45:04.810Z,7.55
2023-05-04T09:47:40.015Z,8.20
2023-05-04T09:50:17.632Z,6.35
2023-05-04T09:52:47.049Z,7.38
2023-05-04T09:55:16.111Z,6.75
2023-05-04T09:57:44.772Z,7.32
2023-05-04T10:00:17.192Z,7.40
2023-05-04T10:02:45.068Z,6.88
2023-05-04T10:05:17.972Z,6.43
2023-05-04T10:07:45.021Z,6.50
2023-05-04T10:10:15.600Z,6.07
2023-05-04T10:12:44.861Z,7.20
2023-05-04T10:15:12.379Z,6.05
2023-05-04T10:18:04.027Z,6.38
2023-05-04T10:20:50.988Z,6.57
2023-05-04T10:23:36.339Z,6.80
2023-05-04T10:26:18.842Z,7.40
2023-05-04T10:29:16.321Z,9.20
2023-05-04T10:31:43.985Z,7.03
2023-05-04T10:34:11.281Z,7.57
2023-05-04T10:36:39.338Z,6.93
2023-05-04T10:39:17.562Z,7.50
2023-05-04T10:41:57.047Z,8.73
2023-05-04T10:44:23.759Z,7.40
2023-05-04T10:47:07.863Z,8.30
2023-05-04T10:49:35.569Z,6.47
2023-05-04T10:52:06.246Z,8.93
2023-05-04T10:54:32.929Z,7.13
2023-05-04T10:57:13.634Z,6.25
2023-05-04T10:59:41.380Z,8.60
2023-05-04T11:02:08.626Z,6.40
2023-05-04T11:04:36.345Z,7.80
2023-05-04T11:07:05.917Z,7.55
2023-05-04T11:09:41.418Z,6.03
2023-05-04T11:12:11.734Z,6.80
2023-05-04T11:14:43.363Z,4.70
2023-05-04T11:17:27.618Z,7.45
2023-05-04T11:19:55.519Z,6.70
2023-05-04T11:22:22.533Z,6.95
2023-05-04T11:24:49.225Z,7.40
2023-05-04T11:27:27.623Z,7.28
2023-05-04T11:30:04.499Z,7.90
2023-05-04T11:32:39.374Z,8.18
2023-05-04T11:35:27.281Z,7.53
2023-05-04T11:37:55.426Z,6.45
2023-05-04T11:40:24.589Z,7.22
2023-05-04T11:42:55.374Z,6.55
2023-05-04T11:45:27.040Z,6.30
2023-05-04T11:47:56.463Z,7.18
2023-05-04T11:50:24.675Z,6.05
2023-05-04T11:52:51.586Z,7.38
2023-05-04T11:55:29.080Z,7.18
2023-05-04T11:58:00.755Z,6.85
2023-05-04T12:00:46.985Z,7.95
2023-05-04T12:03:16.903Z,8.20
2023-05-04T12:05:48.390Z,6.90
2023-05-04T12:08:46.136Z,7.22
2023-05-04T12:11:25.701Z,6.10
2023-05-04T12:14:06.851Z,7.07
2023-05-04T12:16:33.934Z,8.13
2023-05-04T12:19:10.759Z,7.55
2023-05-04T12:21:38.085Z,7.65
2023-05-04T12:24:05.838Z,7.07
2023-05-04T12:26:32.694Z,7.63
2023-05-04T12:28:59.420Z,7.55
2023-05-04T12:31:27.034Z,8.65
2023-05-04T12:33:53.835Z,8.63
2023-05-04T12:36:21.524Z,9.30
2023-05-04T12:38:48.190Z,7.45
2023-05-04T12:41:14.949Z,8.27
2023-05-04T12:43:43.069Z,8.80
2023-05-04T12:46:09.985Z,7.55
2023-05-04T12:48:43.952Z,8.98
2023-05-04T12:51:10.801Z,8.48
2023-05-04T12:53:37.533Z,7.68
2023-05-04T12:56:04.416Z,8.95
2023-05-04T12:58:31.183Z,8.02
2023-05-04T13:00:58.036Z,7.00
2023-05-04T13:03:24.895Z,9.32
2023-05-04T13:05:51.977Z,8.05
2023-05-04T13:08:19.726Z,8.32
2023-05-04T13:10:47.240Z,9.13
2023-05-04T13:13:16.223Z,8.25
2023-05-04T13:15:44.108Z,9.27
2023-05-04T13:18:11.073Z,9.73
2023-05-04T13:20:39.049Z,8.48
2023-05-04T13:23:05.789Z,10.32
2023-05-04T13:25:32.589Z,10.23
2023-05-04T13:28:02.848Z,11.00
2023-05-04T13:30:29.966Z,9.90
2023-05-04T13:32:56.851Z,10.35
2023-05-04T13:35:23.915Z,11.32
2023-05-04T13:37:51.401Z,9.85
2023-05-04T13:40:18.238Z,11.10
2023-05-04T13:42:45.013Z,10.25
2023-05-04T13:45:12.174Z,9.77
2023-05-04T13:47:40.364Z,9.95
2023-05-04T13:50:08.160Z,10.57
2023-05-04T13:52:35.810Z,9.65
2023-05-04T13:55:02.741Z,10.27
2023-05-04T13:57:29.716Z,7.60
2023-05-04T14:00:05.883Z,8.90
2023-05-04T14:02:34.827Z,9.43
2023-05-04T14:05:02.721Z,8.73
2023-05-04T14:07:29.928Z,8.00
2023-05-04T14:09:57.797Z,11.10
2023-05-04T14:12:24.528Z,11.25
2023-05-04T14:14:51.334Z,9.25
2023-05-04T14:17:18.320Z,10.63
2023-05-04T14:19:45.644Z,10.48
2023-05-04T14:22:12.424Z,11.05
2023-05-04T14:24:39.145Z,9.25
2023-05-04T14:27:05.891Z,10.50
2023-05-04T14:29:33.562Z,9.30
2023-05-04T14:32:01.101Z,10.23
2023-05-04T14:34:30.708Z,9.63
2023-05-04T14:36:57.629Z,9.30
2023-05-04T14:39:24.917Z,11.80
2023-05-04T14:41:52.968Z,13.15
2023-05-04T14:44:20.514Z,11.30
2023-05-04T14:46:50.466Z,10.88
2023-05-04T14:49:28.754Z,13.43
2023-05-04T14:52:02.107Z,10.45
2023-05-04T14:54:28.782Z,10.85
2023-05-04T14:56:55.443Z,12.65
2023-05-04T14:59:22.531Z,9.63
2023-05-04T15:01:50.139Z,12.02
2023-05-04T15:04:17.158Z,8.90
2023-05-04T15:06:43.926Z,9.98
2023-05-04T15:09:10.659Z,10.32
2023-05-04T15:11:37.336Z,10.80
2023-05-04T15:14:04.016Z,8.95
2023-05-04T15:16:32.823Z,10.27
2023-05-04T15:18:59.954Z,11.02
2023-05-04T15:21:27.885Z,10.25
2023-05-04T15:23:54.974Z,9.48
2023-05-04T15:26:22.183Z,9.90
2023-05-04T15:28:49.297Z,9.30
2023-05-04T15:31:17.534Z,10.15
2023-05-04T15:33:44.907Z,10.05
2023-05-04T15:36:11.639Z,7.47
2023-05-04T15:38:38.357Z,6.57
2023-05-04T15:41:05.837Z,8.55
2023-05-04T15:43:33.954Z,3.45
2023-05-04T15:46:01.090Z,3.53
2023-05-04T15:48:27.980Z,4.40
2023-05-04T15:50:54.979Z,4.05
2023-05-04T15:53:21.770Z,3.92
2023-05-04T15:55:48.628Z,4.00
2023-05-04T15:58:15.467Z,3.30
2023-05-04T16:00:42.360Z,3.90
2023-05-04T16:03:09.164Z,4.05
2023-05-04T16:05:36.080Z,3.35
2023-05-04T16:08:02.941Z,4.00
2023-05-04T16:10:29.738Z,4.00
2023-05-04T16:12:56.641Z,3.85
2023-05-04T16:15:23.463Z,2.85
2023-05-04T16:17:50.337Z,3.63
2023-05-04T16:20:17.131Z,3.55
2023-05-04T16:22:43.937Z,3.25
2023-05-04T16:25:11.553Z,3.25
2023-05-04T16:27:38.744Z,3.80
2023-05-04T16:30:06.310Z,2.85
2023-05-04T16:32:33.318Z,3.10
2023-05-04T16:35:00.404Z,2.47
2023-05-04T16:37:27.258Z,2.63
2023-05-04T16:39:54.580Z,3.17
2023-05-04T16:42:21.866Z,2.35
2023-05-04T16:44:48.991Z,2.38
2023-05-04T16:47:16.268Z,3.40
2023-05-04T16:49:43.119Z,2.72
2023-05-04T16:52:09.864Z,2.53
2023-05-04T16:54:36.660Z,2.85
2023-05-04T16:57:03.540Z,2.80
2023-05-04T16:59:30.390Z,3.28
2023-05-04T17:01:59.131Z,2.58
2023-05-04T17:04:27.599Z,2.70
2023-05-04T17:06:54.568Z,2.60
2023-05-04T17:09:21.388Z,2.40
2023-05-04T17:11:48.224Z,2.47
2023-05-04T17:14:15.067Z,2.25
2023-05-04T17:16:42.125Z,1.80
2023-05-04T17:19:10.881Z,2.10
2023-05-04T17:21:38.218Z,1.73
2023-05-04T17:24:06.785Z,2.70
2023-05-04T17:26:33.641Z,2.40
2023-05-04T17:29:00.516Z,2.33
2023-05-04T17:31:27.511Z,1.63
2023-05-04T17:33:54.597Z,1.48
2023-05-04T17:36:21.472Z,1.73
2023-05-04T17:38:48.271Z,2.10
2023-05-04T17:41:15.195Z,1.70
2023-05-04T17:43:42.100Z,1.83
2023-05-04T17:46:08.888Z,1.50
2023-05-04T17:48:36.687Z,2.03
2023-05-04T17:51:07.156Z,2.13
2023-05-04T17:53:33.854Z,1.65
2023-05-04T17:56:00.751Z,2.28
2023-05-04T17:58:27.562Z,2.13
2023-05-04T18:00:54.268Z,2.22
2023-05-04T18:03:21.243Z,1.95
2023-05-04T18:05:47.975Z,2.30
2023-05-04T18:08:14.894Z,3.05
2023-05-04T18:10:41.683Z,2.38
2023-05-04T18:13:08.570Z,2.55
2023-05-04T18:15:35.325Z,2.53
2023-05-04T18:18:02.277Z,2.80
2023-05-04T18:20:29.135Z,2.42
2023-05-04T18:22:55.868Z,2.88
2023-05-04T18:25:23.111Z,3.35
2023-05-04T18:27:49.955Z,2.92
2023-05-04T18:30:16.858Z,2.70
2023-05-04T18:32:43.573Z,2.50
2023-05-04T18:35:10.551Z,2.72
2023-05-04T18:37:38.614Z,2.30
2023-05-04T18:40:06.386Z,2.47
2023-05-04T18:42:33.442Z,1.95
2023-05-04T18:45:00.369Z,2.70
2023-05-04T18:47:27.471Z,3.75
2023-05-04T18:49:56.178Z,2.22
2023-05-04T18:52:23.020Z,2.35
2023-05-04T18:54:49.794Z,2.30
2023-05-04T18:57:17.139Z,2.55
2023-05-04T18:59:45.812Z,2.78
2023-05-04T19:02:12.743Z,2.03
2023-05-04T19:04:39.445Z,2.15
2023-05-04T19:07:06.123Z,2.42
2023-05-04T19:09:32.946Z,2.67
2023-05-04T19:12:00.392Z,2.17
2023-05-04T19:14:30.362Z,2.80
2023-05-04T19:16:57.924Z,3.40
2023-05-04T19:19:25.989Z,2.55
2023-05-04T19:21:52.703Z,2.90
2023-05-04T19:24:19.546Z,2.35
2023-05-04T19:26:46.307Z,2.15
2023-05-04T19:29:13.186Z,3.05
2023-05-04T19:31:40.408Z,2.30
2023-05-04T19:34:07.256Z,2.97
2023-05-04T19:36:34.027Z,2.25
2023-05-04T19:39:00.806Z,3.00
2023-05-04T19:41:27.665Z,3.00
2023-05-04T19:43:54.329Z,2.85
2023-05-04T19:46:23.178Z,2.90
2023-05-04T19:48:49.941Z,3.08
2023-05-04T19:51:16.753Z,4.10
2023-05-04T19:53:43.611Z,3.38
2023-05-04T19:56:10.300Z,3.13
2023-05-04T19:58:38.650Z,3.58
2023-05-04T20:01:05.445Z,3.03
2023-05-04T20:03:32.372Z,3.83
2023-05-04T20:05:59.092Z,3.80
2023-05-04T20:08:26.879Z,3.95
2023-05-04T20:10:53.678Z,3.33
2023-05-04T20:13:20.403Z,4.20
2023-05-04T20:15:47.121Z,4.25
2023-05-04T20:18:13.984Z,3.72
2023-05-04T20:20:40.893Z,3.15
2023-05-04T20:23:11.120Z,4.13
2023-05-04T20:25:38.220Z,3.40
2023-05-04T20:28:07.484Z,3.97
2023-05-04T20:30:34.214Z,3.85
2023-05-04T20:33:01.021Z,4.20
2023-05-04T20:35:27.765Z,4.28
2023-05-04T20:37:54.515Z,4.20
2023-05-04T20:40:22.403Z,4.55
2023-05-04T20:42:49.083Z,3.85
2023-05-04T20:45:15.911Z,3.92
2023-05-04T20:47:42.716Z,3.40
2023-05-04T20:50:10.333Z,3.65
2023-05-04T20:52:38.468Z,4.72
2023-05-04T20:55:07.345Z,4.28
2023-05-04T20:57:34.149Z,3.80
2023-05-04T21:00:01.420Z,3.90
2023-05-04T21:02:28.223Z,5.03
2023-05-04T21:04:55.164Z,5.47
2023-05-04T21:07:21.885Z,3.53
2023-05-04T21:09:48.563Z,3.45
2023-05-04T21:12:16.303Z,5.28
2023-05-04T21:14:43.471Z,4.78
2023-05-04T21:17:10.154Z,5.90
2023-05-04T21:19:36.832Z,5.00
2023-05-04T21:22:03.525Z,5.40
2023-05-04T21:24:32.017Z,4.05
2023-05-04T21:26:59.611Z,5.35
2023-05-04T21:29:26.292Z,5.55
2023-05-04T21:31:53.146Z,4.50
2023-05-04T21:34:19.980Z,4.15
2023-05-04T21:36:46.647Z,4.15
2023-05-04T21:39:14.299Z,4.13
2023-05-04T21:41:41.059Z,3.75
2023-05-04T21:44:07.811Z,3.78
2023-05-04T21:46:34.558Z,2.72
2023-05-04T21:49:01.327Z,3.17
2023-05-04T21:51:28.442Z,3.53
2023-05-04T21:53:55.405Z,3.10
2023-05-04T21:56:22.135Z,3.08
2023-05-04T21:58:48.902Z,3.67
2023-05-04T22:01:19.769Z,3.83
2023-05-04T22:03:46.802Z,3.08
2023-05-04T22:06:13.791Z,3.05
2023-05-04T22:08:40.525Z,2.78
2023-05-04T22:11:07.454Z,2.58
2023-05-04T22:13:34.463Z,2.55
2023-05-04T22:16:01.178Z,2.72
2023-05-04T22:18:27.982Z,2.65
2023-05-04T22:20:54.744Z,3.92
2023-05-04T22:23:21.396Z,4.03
2023-05-04T22:25:48.157Z,4.10
2023-05-04T22:28:14.886Z,2.20
2023-05-04T22:30:41.778Z,2.35
2023-05-04T22:33:08.702Z,1.98
2023-05-04T22:35:35.724Z,1.60
2023-05-04T22:38:02.672Z,2.25
2023-05-04T22:40:29.508Z,0.82
2023-05-04T22:42:56.371Z,1.10
2023-05-04T22:45:23.240Z,1.75
2023-05-04T22:47:50.134Z,0.98
2023-05-04T22:50:17.446Z,0.90
2023-05-04T22:52:44.257Z,0.95
2023-05-04T22:55:11.033Z,1.45
2023-05-04T22:57:37.895Z,1.20
2023-05-04T23:00:07.498Z,1.02
2023-05-04T23:02:35.172Z,0.70
2023-05-04T23:05:02.154Z,0.80
2023-05-04T23:07:28.999Z,1.23
2023-05-04T23:09:56.372Z,0.70
2023-05-04T23:12:23.407Z,1.00
2023-05-04T23:14:52.327Z,0.70
2023-05-04T23:17:19.601Z,1.15
2023-05-04T23:19:46.348Z,0.70
2023-05-04T23:22:14.164Z,1.20
2023-05-04T23:24:41.158Z,1.08
2023-05-04T23:27:07.995Z,0.70
2023-05-04T23:29:34.743Z,0.68
2023-05-04T23:32:01.568Z,0.93
2023-05-04T23:34:28.377Z,0.73
2023-05-04T23:36:55.216Z,0.60
2023-05-04T23:39:21.931Z,0.68
2023-05-04T23:41:49.072Z,1.35
2023-05-04T23:44:16.546Z,1.20
2023-05-04T23:46:43.413Z,0.75
2023-05-04T23:49:10.348Z,1.50
2023-05-04T23:51:37.062Z,0.70
2023-05-04T23:54:03.931Z,1.60
2023-05-04T23:56:31.444Z,1.00
2023-05-04T23:58:58.150Z,0.85
